Alder, Washington
Current Conditions -  °F | °C
As of 11:58 PM on Friday 24 Oct 2014 (Local Time) from KGRF Reporting Station
Light Rain Light Rain  
Wind Chill: 51°   Ceiling: 18000
Heat Index: 51°   Visibility: 10mi
Dew Point: 50°   Wind: 5mph
Humidity: 99%   Direction: 360°N
Pressure: 29.71"   Gusts: NA
Location:  46.8687°N, 122.208°W
Report Text: KGRF 250658Z AUTO 36004KT 10SM -RA SCT095 BKN180 10/10 A2971 RMK AO2 RAE0556B0626DZB0556E0626 SLP065 P0000 T01030102 $
Loading
Personal Weather Stations






























Interactive Weather Map
Tropical Storm Tracking
New forecast layout! Learn more

10-Day Weather Forecast

Advertisements
Track Severe Weather on mobile